Ajax, Louisiana
Current Conditions -  °F | °C
As of 4:35 AM on Saturday 01 Nov 2014 (Local Time) from KIER Reporting Station
Clear Clear  
Wind Chill: 39°   Ceiling: Unl
Heat Index: 43°   Visibility: 10mi
Dew Point: 31°   Wind: 7mph
Humidity: 62%   Direction: 40°NE
Pressure: 30.34"   Gusts: NA
Location:  31.7926°N, 93.4001°W
Report Text: KIER 010935Z AUTO 04006KT 10SM CLR 06/00 A3034 RMK AO2 T00621005
Loading
Personal Weather Stations






























Interactive Weather Map
Tropical Storm Tracking
New forecast layout! Learn more

10-Day Weather Forecast

Advertisements
Track Severe Weather on mobile